Terrenceville, Canada
Current Conditions -  °F | °C
As of 1:00 PM on Friday 21 Nov 2014 (Local Time) from CYQX Reporting Station
Broken Clouds Broken Clouds  
Wind Chill: 34°   Ceiling: 5600
Heat Index: 41°   Visibility: 15mi
Dew Point: 39°   Wind: 12mph
Humidity: 93%   Direction: 220°SW
Pressure: 29.39"   Gusts: 18mph
Location:  47.68°N, 54.72°W
Report Text: CYQX 211600Z 22010G16KT 15SM FEW009 FEW015 BKN056 BKN095 BKN260 05/04 A2939 RMK SF1SC1SC3AC1CI1 SLP957
Loading
Personal Weather Stations






























Interactive Weather Map New forecast layout! Learn more

10-Day Weather Forecast

Advertisements
Track Severe Weather on mobile